Terminal Aerodrome Forecast
Issued by NWS

Home | Current Version | Previous Version | Graphics & Text | Print | Product List | Glossary On
Versions: 1 2 3 4 5 6 7 8 9 10 11 12 13 14 15 16 17 18 19 20 21 22 23 24 25 26 27 28 29 30 31 32 33 34 35 36 37 38
000
FTUS43 KGRB 211016 AAC
TAFRHI
TAF AMD
KRHI 211016Z 2110/2206 00000KT 6SM BR OVC100
     FM211600 VRB03KT 5SM BR FEW012 OVC050
     FM212200 06004KT P6SM OVC030
     FM220100 06005KT P6SM OVC015=

USA.gov is the U.S. government's official web portal to all federal, state and local government web resources and services.